createdAt,value
2017-12-08T00:00:01.852Z,998.36
2017-12-08T00:00:42.399Z,998.38
2017-12-08T00:01:22.939Z,998.39
2017-12-08T00:02:03.457Z,998.4
2017-12-08T00:02:44.024Z,998.4
2017-12-08T00:03:24.529Z,998.44
2017-12-08T00:04:05.097Z,998.42
2017-12-08T00:04:45.656Z,998.43
2017-12-08T00:05:26.170Z,998.37
2017-12-08T00:06:06.938Z,998.37
2017-12-08T00:06:47.505Z,998.39
2017-12-08T00:07:28.137Z,998.34
2017-12-08T00:08:08.664Z,998.35
2017-12-08T00:08:49.206Z,998.37
2017-12-08T00:09:29.748Z,998.4
2017-12-08T00:10:10.300Z,998.39
2017-12-08T00:10:50.860Z,998.42
2017-12-08T00:11:31.399Z,998.38
2017-12-08T00:12:11.921Z,998.45
2017-12-08T00:12:52.469Z,998.47
2017-12-08T00:13:33.055Z,998.42
2017-12-08T00:14:13.640Z,998.37
2017-12-08T00:14:54.180Z,998.4
2017-12-08T00:15:34.739Z,998.31
2017-12-08T00:16:15.321Z,998.35
2017-12-08T00:16:55.872Z,998.32
2017-12-08T00:17:36.419Z,998.24
2017-12-08T00:18:16.941Z,998.26
2017-12-08T00:18:57.492Z,998.23
2017-12-08T00:19:37.995Z,998.23
2017-12-08T00:20:18.533Z,998.2
2017-12-08T00:20:59.084Z,998.19
2017-12-08T00:21:39.657Z,998.11
2017-12-08T00:22:20.250Z,998.07
2017-12-08T00:23:00.784Z,998.07
2017-12-08T00:23:41.308Z,998.05
2017-12-08T00:24:21.917Z,997.89
2017-12-08T00:25:02.461Z,997.96
2017-12-08T00:25:43.013Z,997.89
2017-12-08T00:26:23.548Z,997.86
2017-12-08T00:27:04.078Z,997.8
2017-12-08T00:27:44.620Z,997.87
2017-12-08T00:28:25.181Z,997.76
2017-12-08T00:29:05.720Z,997.68
2017-12-08T00:29:46.253Z,997.61
2017-12-08T00:30:26.861Z,997.59
2017-12-08T00:31:07.363Z,997.5
2017-12-08T00:31:47.869Z,997.54
2017-12-08T00:32:28.381Z,997.48
2017-12-08T00:33:08.927Z,997.53
2017-12-08T00:33:49.499Z,997.58
2017-12-08T00:34:30.033Z,997.48
2017-12-08T00:35:10.598Z,997.5
2017-12-08T00:35:51.152Z,997.5
2017-12-08T00:36:31.684Z,997.49
2017-12-08T00:37:12.217Z,997.55
2017-12-08T00:37:52.773Z,997.51
2017-12-08T00:38:33.333Z,997.51
2017-12-08T00:39:13.859Z,997.58
2017-12-08T00:39:54.409Z,997.52
2017-12-08T00:40:34.952Z,997.53
2017-12-08T00:41:15.485Z,997.51
2017-12-08T00:41:56.047Z,997.53
2017-12-08T00:42:36.563Z,997.48
2017-12-08T00:43:17.076Z,997.52
2017-12-08T00:43:57.593Z,997.52
2017-12-08T00:44:38.154Z,997.46
2017-12-08T00:45:18.705Z,997.5
2017-12-08T00:45:59.220Z,997.52
2017-12-08T00:46:39.762Z,997.49
2017-12-08T00:47:20.317Z,997.5
2017-12-08T00:48:00.830Z,997.52
2017-12-08T00:48:41.393Z,997.56
2017-12-08T00:49:21.930Z,997.61
2017-12-08T00:50:02.492Z,997.56
2017-12-08T00:50:43.037Z,997.58
2017-12-08T00:51:23.565Z,997.5
2017-12-08T00:52:04.129Z,997.5
2017-12-08T00:52:44.685Z,997.5
2017-12-08T00:53:25.277Z,997.53
2017-12-08T00:54:05.809Z,997.51
2017-12-08T00:54:46.334Z,997.49
2017-12-08T00:55:26.859Z,997.49
2017-12-08T00:56:07.407Z,997.4
2017-12-08T00:56:47.951Z,997.46
2017-12-08T00:57:28.513Z,997.46
2017-12-08T00:58:09.093Z,997.49
2017-12-08T00:58:49.634Z,997.54
2017-12-08T00:59:30.199Z,997.51
2017-12-08T01:00:10.723Z,997.56
2017-12-08T01:00:51.287Z,997.55
2017-12-08T01:01:31.803Z,997.6
2017-12-08T01:02:12.320Z,997.52
2017-12-08T01:02:52.845Z,997.47
2017-12-08T01:03:33.377Z,997.44
2017-12-08T01:04:13.930Z,997.54
2017-12-08T01:04:54.501Z,997.52
2017-12-08T01:05:35.021Z,997.54
2017-12-08T01:06:15.574Z,997.53
2017-12-08T01:06:56.251Z,997.54
2017-12-08T01:07:36.791Z,997.51
2017-12-08T01:08:17.349Z,997.5
2017-12-08T01:08:57.884Z,997.5
2017-12-08T01:09:38.440Z,997.54
2017-12-08T01:10:19.000Z,997.57
2017-12-08T01:10:59.540Z,997.62
2017-12-08T01:11:40.121Z,997.49
2017-12-08T01:12:20.661Z,997.58
2017-12-08T01:13:01.194Z,997.56
2017-12-08T01:13:41.682Z,997.65
2017-12-08T01:14:22.235Z,997.63
2017-12-08T01:15:02.802Z,997.64
2017-12-08T01:15:43.319Z,997.6
2017-12-08T01:16:23.871Z,997.55
2017-12-08T01:17:04.419Z,997.6
2017-12-08T01:17:44.976Z,997.58
2017-12-08T01:18:25.511Z,997.61
2017-12-08T01:19:06.079Z,997.58
2017-12-08T01:19:46.628Z,997.56
2017-12-08T01:20:27.176Z,997.57
2017-12-08T01:21:07.745Z,997.57
2017-12-08T01:21:48.272Z,997.53
2017-12-08T01:22:28.818Z,997.6
2017-12-08T01:23:09.386Z,997.55
2017-12-08T01:23:49.944Z,997.58
2017-12-08T01:24:30.487Z,997.57
2017-12-08T01:25:11.029Z,997.56
2017-12-08T01:25:51.574Z,997.52
2017-12-08T01:26:32.153Z,997.57
2017-12-08T01:27:12.691Z,997.58
2017-12-08T01:27:53.225Z,997.55
2017-12-08T01:28:33.775Z,997.52
2017-12-08T01:29:14.326Z,997.48
2017-12-08T01:29:54.851Z,997.57
2017-12-08T01:30:35.361Z,997.54
2017-12-08T01:31:15.915Z,997.56
2017-12-08T01:31:56.478Z,997.48
2017-12-08T01:32:37.014Z,997.59
2017-12-08T01:33:17.606Z,997.56
2017-12-08T01:33:58.122Z,997.59
2017-12-08T01:34:38.641Z,997.56
2017-12-08T01:35:19.201Z,997.59
2017-12-08T01:35:59.730Z,997.61
2017-12-08T01:36:40.276Z,997.56
2017-12-08T01:37:20.842Z,997.55
2017-12-08T01:38:01.383Z,997.56
2017-12-08T01:38:41.942Z,997.58
2017-12-08T01:39:22.481Z,997.54
2017-12-08T01:40:03.058Z,997.55
2017-12-08T01:40:43.616Z,997.53
2017-12-08T01:41:24.164Z,997.53
2017-12-08T01:42:04.705Z,997.53
2017-12-08T01:42:45.244Z,997.6
2017-12-08T01:43:25.806Z,997.55
2017-12-08T01:44:06.383Z,997.57
2017-12-08T01:44:46.923Z,997.59
2017-12-08T01:45:27.452Z,997.54
2017-12-08T01:46:07.993Z,997.53
2017-12-08T01:46:48.555Z,997.59
2017-12-08T01:47:29.105Z,997.59
2017-12-08T01:48:09.700Z,997.6
2017-12-08T01:48:50.176Z,997.6
2017-12-08T01:49:30.723Z,997.57
2017-12-08T01:50:11.287Z,997.54
2017-12-08T01:50:51.857Z,997.54
2017-12-08T01:51:32.396Z,997.55
2017-12-08T01:52:12.931Z,997.55
2017-12-08T01:52:53.490Z,997.45
2017-12-08T01:53:34.033Z,997.49
2017-12-08T01:54:14.568Z,997.45
2017-12-08T01:54:55.117Z,997.45
2017-12-08T01:55:35.671Z,997.52
2017-12-08T01:56:16.221Z,997.5
2017-12-08T01:56:56.776Z,997.54
2017-12-08T01:57:37.334Z,997.52
2017-12-08T01:58:17.894Z,997.44
2017-12-08T01:58:58.420Z,997.49
2017-12-08T01:59:38.967Z,997.5
2017-12-08T02:00:19.530Z,997.46
2017-12-08T02:01:00.076Z,997.45
2017-12-08T02:01:40.640Z,997.44
2017-12-08T02:02:21.198Z,997.5
2017-12-08T02:03:01.775Z,997.44
2017-12-08T02:03:42.330Z,997.52
2017-12-08T02:04:22.895Z,997.48
2017-12-08T02:05:03.446Z,997.45
2017-12-08T02:05:43.980Z,997.47
2017-12-08T02:06:24.550Z,997.45
2017-12-08T02:07:05.092Z,997.51
2017-12-08T02:07:45.683Z,997.54
2017-12-08T02:08:26.231Z,997.47
2017-12-08T02:09:06.798Z,997.49
2017-12-08T02:09:47.345Z,997.5
2017-12-08T02:10:27.916Z,997.47
2017-12-08T02:11:08.484Z,997.5
2017-12-08T02:11:49.048Z,997.57
2017-12-08T02:12:29.607Z,997.49
2017-12-08T02:13:10.147Z,997.51
2017-12-08T02:13:50.707Z,997.53
2017-12-08T02:14:31.256Z,997.53
2017-12-08T02:15:11.792Z,997.64
2017-12-08T02:15:52.346Z,997.64
2017-12-08T02:16:32.887Z,997.64
2017-12-08T02:17:13.430Z,997.64
2017-12-08T02:17:53.983Z,997.62
2017-12-08T02:18:34.526Z,997.57
2017-12-08T02:19:15.068Z,997.59
2017-12-08T02:19:55.616Z,997.64
2017-12-08T02:20:36.170Z,997.61
2017-12-08T02:21:16.720Z,997.66
2017-12-08T02:21:57.263Z,997.64
2017-12-08T02:22:37.792Z,997.64
2017-12-08T02:23:18.361Z,997.6
2017-12-08T02:23:58.924Z,997.59
2017-12-08T02:24:39.488Z,997.6
2017-12-08T02:25:20.018Z,997.56
2017-12-08T02:26:00.568Z,997.59
2017-12-08T02:26:41.130Z,997.61
2017-12-08T02:27:21.680Z,997.51
2017-12-08T02:28:02.222Z,997.57
2017-12-08T02:28:42.786Z,997.58
2017-12-08T02:29:23.325Z,997.6
2017-12-08T02:30:03.876Z,997.59
2017-12-08T02:30:44.427Z,997.62
2017-12-08T02:31:25.000Z,997.59
2017-12-08T02:32:05.551Z,997.62
2017-12-08T02:32:46.093Z,997.58
2017-12-08T02:33:26.648Z,997.64
2017-12-08T02:34:07.190Z,997.6
2017-12-08T02:34:47.753Z,997.59
2017-12-08T02:35:28.301Z,997.63
2017-12-08T02:36:08.841Z,997.55
2017-12-08T02:36:49.399Z,997.66
2017-12-08T02:37:29.982Z,997.66
2017-12-08T02:38:10.531Z,997.67
2017-12-08T02:38:51.084Z,997.63
2017-12-08T02:39:31.653Z,997.62
2017-12-08T02:40:12.209Z,997.64
2017-12-08T02:40:52.754Z,997.62
2017-12-08T02:41:33.314Z,997.58
2017-12-08T02:42:13.878Z,997.64
2017-12-08T02:42:54.443Z,997.58
2017-12-08T02:43:34.983Z,997.56
2017-12-08T02:44:15.552Z,997.6
2017-12-08T02:44:56.111Z,997.58
2017-12-08T02:45:36.666Z,997.6
2017-12-08T02:46:17.247Z,997.56
2017-12-08T02:46:57.795Z,997.59
2017-12-08T02:47:38.351Z,997.59
2017-12-08T02:48:18.921Z,997.6
2017-12-08T02:48:59.506Z,997.56
2017-12-08T02:49:40.065Z,997.57
2017-12-08T02:50:20.638Z,997.59
2017-12-08T02:51:01.201Z,997.53
2017-12-08T02:51:41.744Z,997.55
2017-12-08T02:52:22.309Z,997.58
2017-12-08T02:53:02.892Z,997.56
2017-12-08T02:53:43.437Z,997.56
2017-12-08T02:54:23.990Z,997.52
2017-12-08T02:55:04.550Z,997.55
2017-12-08T02:55:45.124Z,997.6
2017-12-08T02:56:25.677Z,997.6
2017-12-08T02:57:06.240Z,997.55
2017-12-08T02:57:46.787Z,997.63
2017-12-08T02:58:27.351Z,997.59
2017-12-08T02:59:07.906Z,997.69
2017-12-08T02:59:48.472Z,997.69
2017-12-08T03:00:29.028Z,997.66
2017-12-08T03:01:09.586Z,997.76
2017-12-08T03:01:50.146Z,997.64
2017-12-08T03:02:30.694Z,997.67
2017-12-08T03:03:11.236Z,997.73
2017-12-08T03:03:51.779Z,997.73
2017-12-08T03:04:32.339Z,997.64
2017-12-08T03:05:12.914Z,997.76
2017-12-08T03:05:53.485Z,997.75
2017-12-08T03:06:34.044Z,997.76
2017-12-08T03:07:14.584Z,997.73
2017-12-08T03:07:55.157Z,997.71
2017-12-08T03:08:35.709Z,997.88
2017-12-08T03:09:16.270Z,997.68
2017-12-08T03:09:56.816Z,997.66
2017-12-08T03:10:37.359Z,997.72
2017-12-08T03:11:17.919Z,997.69
2017-12-08T03:11:58.471Z,997.6
2017-12-08T03:12:39.011Z,997.81
2017-12-08T03:13:19.564Z,997.79
2017-12-08T03:14:00.113Z,997.86
2017-12-08T03:14:40.661Z,997.75
2017-12-08T03:15:21.217Z,997.76
2017-12-08T03:16:01.765Z,997.79
2017-12-08T03:16:42.302Z,997.72
2017-12-08T03:17:22.860Z,997.78
2017-12-08T03:18:03.413Z,997.76
2017-12-08T03:18:43.960Z,997.8
2017-12-08T03:19:24.498Z,997.8
2017-12-08T03:20:05.060Z,997.83
2017-12-08T03:20:45.611Z,997.8
2017-12-08T03:21:26.154Z,997.83
2017-12-08T03:22:06.679Z,997.85
2017-12-08T03:22:47.229Z,997.9
2017-12-08T03:23:27.800Z,997.91
2017-12-08T03:24:08.349Z,997.9
2017-12-08T03:24:48.906Z,997.89
2017-12-08T03:25:29.462Z,997.91
2017-12-08T03:26:10.040Z,997.94
2017-12-08T03:26:50.561Z,998
2017-12-08T03:27:31.131Z,997.99
2017-12-08T03:28:11.681Z,998
2017-12-08T03:28:52.221Z,998.06
2017-12-08T03:29:32.766Z,998.01
2017-12-08T03:30:13.326Z,998.05
2017-12-08T03:30:53.884Z,998.04
2017-12-08T03:31:34.450Z,998
2017-12-08T03:32:14.956Z,998.04
2017-12-08T03:32:55.507Z,998.06
2017-12-08T03:33:36.069Z,998.04
2017-12-08T03:34:16.609Z,997.99
2017-12-08T03:34:57.172Z,998.08
2017-12-08T03:35:37.724Z,998.08
2017-12-08T03:36:18.294Z,998.1
2017-12-08T03:36:58.859Z,998.15
2017-12-08T03:37:39.392Z,998.16
2017-12-08T03:38:19.984Z,998.19
2017-12-08T03:39:00.487Z,998.25
2017-12-08T03:39:41.046Z,998.23
2017-12-08T03:40:21.596Z,998.25
2017-12-08T03:41:02.147Z,998.23
2017-12-08T03:41:42.696Z,998.23
2017-12-08T03:42:23.251Z,998.18
2017-12-08T03:43:03.810Z,998.24
2017-12-08T03:43:44.335Z,998.21
2017-12-08T03:44:24.886Z,998.14
2017-12-08T03:45:05.458Z,998.18
2017-12-08T03:45:45.996Z,998.28
2017-12-08T03:46:26.561Z,998.25
2017-12-08T03:47:07.116Z,998.25
2017-12-08T03:47:47.670Z,998.28
2017-12-08T03:48:28.225Z,998.26
2017-12-08T03:49:08.780Z,998.31
2017-12-08T03:49:49.310Z,998.31
2017-12-08T03:50:29.869Z,998.37
2017-12-08T03:51:10.433Z,998.34
2017-12-08T03:51:50.973Z,998.32
2017-12-08T03:52:31.537Z,998.36
2017-12-08T03:53:12.072Z,998.32
2017-12-08T03:53:52.610Z,998.37
2017-12-08T03:54:33.166Z,998.39
2017-12-08T03:55:14.599Z,998.39
2017-12-08T03:55:55.158Z,998.43
2017-12-08T03:56:35.704Z,998.36
2017-12-08T03:57:16.266Z,998.42
2017-12-08T03:57:56.791Z,998.4
2017-12-08T03:58:37.341Z,998.35
2017-12-08T03:59:17.875Z,998.37
2017-12-08T03:59:58.412Z,998.43
2017-12-08T04:00:38.956Z,998.37
2017-12-08T04:01:19.509Z,998.47
2017-12-08T04:02:00.056Z,998.51
2017-12-08T04:02:40.596Z,998.43
2017-12-08T04:03:21.165Z,998.45
2017-12-08T04:04:01.720Z,998.45
2017-12-08T04:04:42.277Z,998.45
2017-12-08T04:05:22.838Z,998.45
2017-12-08T04:06:03.390Z,998.46
2017-12-08T04:06:43.960Z,998.45
2017-12-08T04:07:24.520Z,998.38
2017-12-08T04:08:05.078Z,998.46
2017-12-08T04:08:45.634Z,998.36
2017-12-08T04:09:26.201Z,998.46
2017-12-08T04:10:06.750Z,998.43
2017-12-08T04:10:47.296Z,998.41
2017-12-08T04:11:27.856Z,998.4
2017-12-08T04:12:08.408Z,998.35
2017-12-08T04:12:48.974Z,998.34
2017-12-08T04:13:29.524Z,998.33
2017-12-08T04:14:10.087Z,998.28
2017-12-08T04:14:50.656Z,998.43
2017-12-08T04:15:31.220Z,998.35
2017-12-08T04:16:11.772Z,998.37
2017-12-08T04:16:52.325Z,998.4
2017-12-08T04:17:32.883Z,998.36
2017-12-08T04:18:13.440Z,998.32
2017-12-08T04:18:54.006Z,998.34
2017-12-08T04:19:34.578Z,998.31
2017-12-08T04:20:15.126Z,998.3
2017-12-08T04:20:55.683Z,998.31
2017-12-08T04:21:36.254Z,998.33
2017-12-08T04:22:16.816Z,998.27
2017-12-08T04:22:57.378Z,998.3
2017-12-08T04:23:37.933Z,998.28
2017-12-08T04:24:18.499Z,998.28
2017-12-08T04:24:59.056Z,998.29
2017-12-08T04:25:39.617Z,998.3
2017-12-08T04:26:20.169Z,998.26
2017-12-08T04:27:00.744Z,998.27
2017-12-08T04:27:41.311Z,998.22
2017-12-08T04:28:21.870Z,998.2
2017-12-08T04:29:02.468Z,998.21
2017-12-08T04:29:43.034Z,998.22
2017-12-08T04:30:23.598Z,998.19
2017-12-08T04:31:04.142Z,998.13
2017-12-08T04:31:44.686Z,998.19
2017-12-08T04:32:25.245Z,998.24
2017-12-08T04:33:05.782Z,998.23
2017-12-08T04:33:46.342Z,998.21
2017-12-08T04:34:26.927Z,998.28
2017-12-08T04:35:07.492Z,998.25
2017-12-08T04:35:48.058Z,998.29
2017-12-08T04:36:28.603Z,998.25
2017-12-08T04:37:09.165Z,998.26
2017-12-08T04:37:49.723Z,998.25
2017-12-08T04:38:30.284Z,998.31
2017-12-08T04:39:10.837Z,998.26
2017-12-08T04:39:51.391Z,998.28
2017-12-08T04:40:31.966Z,998.27
2017-12-08T04:41:12.503Z,998.26
2017-12-08T04:41:53.060Z,998.23
2017-12-08T04:42:33.615Z,998.22
2017-12-08T04:43:14.176Z,998.17
2017-12-08T04:43:54.724Z,998.18
2017-12-08T04:44:35.288Z,998.22
2017-12-08T04:45:15.850Z,998.2
2017-12-08T04:45:56.416Z,998.2
2017-12-08T04:46:36.944Z,998.22
2017-12-08T04:47:17.501Z,998.26
2017-12-08T04:47:58.049Z,998.22
2017-12-08T04:48:38.605Z,998.19
2017-12-08T04:49:19.168Z,998.23
2017-12-08T04:49:59.721Z,998.19
2017-12-08T04:50:40.267Z,998.24
2017-12-08T04:51:20.842Z,998.2
2017-12-08T04:52:01.403Z,998.2
2017-12-08T04:52:41.947Z,998.21
2017-12-08T04:53:22.485Z,998.18
2017-12-08T04:54:03.037Z,998.28
2017-12-08T04:54:43.584Z,998.24
2017-12-08T04:55:24.129Z,998.18
2017-12-08T04:56:04.676Z,998.24
2017-12-08T04:56:45.207Z,998.2
2017-12-08T04:57:25.752Z,998.25
2017-12-08T04:58:06.312Z,998.3
2017-12-08T04:58:46.820Z,998.24
2017-12-08T04:59:27.383Z,998.31
2017-12-08T05:00:07.916Z,998.38
2017-12-08T05:00:48.465Z,998.38
2017-12-08T05:01:29.020Z,998.38
2017-12-08T05:02:09.591Z,998.34
2017-12-08T05:02:50.142Z,998.4
2017-12-08T05:03:30.695Z,998.42
2017-12-08T05:04:11.253Z,998.37
2017-12-08T05:04:51.775Z,998.43
2017-12-08T05:05:32.310Z,998.43
2017-12-08T05:06:12.821Z,998.41
2017-12-08T05:06:53.362Z,998.44
2017-12-08T05:07:33.918Z,998.4
2017-12-08T05:08:14.469Z,998.4
2017-12-08T05:08:55.019Z,998.38
2017-12-08T05:09:35.554Z,998.38
2017-12-08T05:10:16.109Z,998.44
2017-12-08T05:10:56.696Z,998.43
2017-12-08T05:11:37.246Z,998.39
2017-12-08T05:12:17.809Z,998.38
2017-12-08T05:12:58.371Z,998.38
2017-12-08T05:13:38.895Z,998.39
2017-12-08T05:14:19.447Z,998.4
2017-12-08T05:15:00.011Z,998.42
2017-12-08T05:15:40.566Z,998.4
2017-12-08T05:16:21.134Z,998.4
2017-12-08T05:17:01.663Z,998.36
2017-12-08T05:17:42.208Z,998.42
2017-12-08T05:18:22.750Z,998.39
2017-12-08T05:19:03.309Z,998.38
2017-12-08T05:19:43.872Z,998.49
2017-12-08T05:20:24.408Z,998.44
2017-12-08T05:21:04.964Z,998.46
2017-12-08T05:21:45.515Z,998.52
2017-12-08T05:22:26.082Z,998.46
2017-12-08T05:23:06.614Z,998.49
2017-12-08T05:23:47.154Z,998.48
2017-12-08T05:24:27.717Z,998.46
2017-12-08T05:25:08.256Z,998.46
2017-12-08T05:25:48.818Z,998.48
2017-12-08T05:26:29.380Z,998.43
2017-12-08T05:27:09.964Z,998.51
2017-12-08T05:27:50.527Z,998.51
2017-12-08T05:28:31.072Z,998.53
2017-12-08T05:29:11.650Z,998.52
2017-12-08T05:29:52.202Z,998.58
2017-12-08T05:30:32.749Z,998.58
2017-12-08T05:31:13.303Z,998.52
2017-12-08T05:31:53.863Z,998.59
2017-12-08T05:32:34.393Z,998.52
2017-12-08T05:33:14.949Z,998.49
2017-12-08T05:33:55.461Z,998.55
2017-12-08T05:34:35.988Z,998.59
2017-12-08T05:35:16.561Z,998.57
2017-12-08T05:35:57.119Z,998.59
2017-12-08T05:36:37.684Z,998.62
2017-12-08T05:37:18.271Z,998.66
2017-12-08T05:37:58.849Z,998.65
2017-12-08T05:38:39.409Z,998.69
2017-12-08T05:39:19.961Z,998.68
2017-12-08T05:40:00.494Z,998.66
2017-12-08T05:40:41.050Z,998.67
2017-12-08T05:41:21.595Z,998.63
2017-12-08T05:42:02.154Z,998.66
2017-12-08T05:42:42.726Z,998.65
2017-12-08T05:43:23.281Z,998.66
2017-12-08T05:44:03.838Z,998.7
2017-12-08T05:44:44.391Z,998.7
2017-12-08T05:45:24.939Z,998.67
2017-12-08T05:46:05.492Z,998.77
2017-12-08T05:46:46.033Z,998.79
2017-12-08T05:47:26.582Z,998.76
2017-12-08T05:48:07.137Z,998.83
2017-12-08T05:48:47.704Z,998.85
2017-12-08T05:49:28.246Z,998.86
2017-12-08T05:50:08.811Z,998.91
2017-12-08T05:50:49.361Z,998.95
2017-12-08T05:51:29.910Z,998.92
2017-12-08T05:52:10.456Z,998.99
2017-12-08T05:52:51.017Z,998.97
2017-12-08T05:53:31.574Z,998.97
2017-12-08T05:54:12.110Z,998.97
2017-12-08T05:54:52.677Z,998.96
2017-12-08T05:55:33.218Z,999.01
2017-12-08T05:56:13.761Z,998.95
2017-12-08T05:56:54.322Z,998.97
2017-12-08T05:57:34.881Z,998.99
2017-12-08T05:58:15.426Z,999.01
2017-12-08T05:58:55.961Z,998.99
2017-12-08T05:59:36.510Z,998.97
2017-12-08T06:00:17.070Z,999.04
2017-12-08T06:00:57.627Z,999.03
2017-12-08T06:01:38.153Z,999.02
2017-12-08T06:02:18.712Z,999.04
2017-12-08T06:02:59.287Z,999.01
2017-12-08T06:03:39.831Z,999
2017-12-08T06:04:20.376Z,998.99
2017-12-08T06:05:00.941Z,999
2017-12-08T06:05:41.571Z,999.04
2017-12-08T06:06:22.028Z,999.01
2017-12-08T06:07:02.549Z,999.02
2017-12-08T06:07:43.122Z,998.98
2017-12-08T06:08:23.678Z,998.99
2017-12-08T06:09:04.232Z,999.02
2017-12-08T06:09:44.800Z,999.05
2017-12-08T06:10:25.354Z,999.06
2017-12-08T06:11:05.901Z,998.97
2017-12-08T06:11:46.483Z,999.05
2017-12-08T06:12:27.009Z,998.98
2017-12-08T06:13:07.566Z,998.96
2017-12-08T06:13:48.113Z,998.99
2017-12-08T06:14:28.664Z,999.01
2017-12-08T06:15:09.219Z,999.03
2017-12-08T06:15:49.778Z,999.01
2017-12-08T06:16:30.324Z,999
2017-12-08T06:17:10.873Z,999.02
2017-12-08T06:17:51.448Z,998.95
2017-12-08T06:18:31.990Z,998.97
2017-12-08T06:19:12.584Z,998.97
2017-12-08T06:19:53.088Z,998.99
2017-12-08T06:20:33.635Z,999
2017-12-08T06:21:14.159Z,998.98
2017-12-08T06:21:54.688Z,999.01
2017-12-08T06:22:35.280Z,998.96
2017-12-08T06:23:15.887Z,998.95
2017-12-08T06:23:56.444Z,999
2017-12-08T06:24:37.006Z,998.93
2017-12-08T06:25:17.555Z,998.91
2017-12-08T06:25:58.103Z,998.93
2017-12-08T06:26:38.659Z,998.9
2017-12-08T06:27:19.210Z,998.9
2017-12-08T06:27:59.794Z,998.91
2017-12-08T06:28:40.342Z,998.93
2017-12-08T06:29:20.913Z,998.95
2017-12-08T06:30:01.502Z,998.98
2017-12-08T06:30:42.018Z,998.98
2017-12-08T06:31:22.554Z,998.98
2017-12-08T06:32:03.101Z,998.95
2017-12-08T06:32:43.685Z,999.01
2017-12-08T06:33:24.263Z,999.01
2017-12-08T06:34:04.822Z,999.03
2017-12-08T06:34:45.436Z,999.03
2017-12-08T06:35:25.970Z,999
2017-12-08T06:36:06.546Z,999.06
2017-12-08T06:36:47.102Z,998.96
2017-12-08T06:37:27.689Z,999.01
2017-12-08T06:38:08.236Z,999
2017-12-08T06:38:48.808Z,998.94
2017-12-08T06:39:29.364Z,998.97
2017-12-08T06:40:09.929Z,998.95
2017-12-08T06:40:50.493Z,998.91
2017-12-08T06:41:31.072Z,999.01
2017-12-08T06:42:11.620Z,998.97
2017-12-08T06:42:52.237Z,998.9
2017-12-08T06:43:32.766Z,998.99
2017-12-08T06:44:13.306Z,998.94
2017-12-08T06:44:53.852Z,998.98
2017-12-08T06:45:34.423Z,998.97
2017-12-08T06:46:14.984Z,998.99
2017-12-08T06:46:55.543Z,998.98
2017-12-08T06:47:36.109Z,998.93
2017-12-08T06:48:16.731Z,998.96
2017-12-08T06:48:57.292Z,998.98
2017-12-08T06:49:37.861Z,999.01
2017-12-08T06:50:18.487Z,999.02
2017-12-08T06:50:59.083Z,999.04
2017-12-08T06:51:39.642Z,999.05
2017-12-08T06:52:20.244Z,999.02
2017-12-08T06:53:00.832Z,999.06
2017-12-08T06:53:41.406Z,999.06
2017-12-08T06:54:21.957Z,999.04
2017-12-08T06:55:02.515Z,999.07
2017-12-08T06:55:43.072Z,999.06
2017-12-08T06:56:23.624Z,999.03
2017-12-08T06:57:04.181Z,999.06
2017-12-08T06:57:44.753Z,999.07
2017-12-08T06:58:25.351Z,999.08
2017-12-08T06:59:05.931Z,999.09
2017-12-08T06:59:46.555Z,999.14
2017-12-08T07:00:27.122Z,999.15
2017-12-08T07:01:07.674Z,999.13
2017-12-08T07:01:48.252Z,999.13
2017-12-08T07:02:28.801Z,999.11
2017-12-08T07:03:09.375Z,999.16
2017-12-08T07:03:49.935Z,999.11
2017-12-08T07:04:30.524Z,999.15
2017-12-08T07:05:12.040Z,999.12
2017-12-08T07:05:52.646Z,999.15
2017-12-08T07:06:33.208Z,999.12
2017-12-08T07:07:13.758Z,999.13
2017-12-08T07:07:54.311Z,999.15
2017-12-08T07:08:34.888Z,999.15
2017-12-08T07:09:15.452Z,999.15
2017-12-08T07:09:55.993Z,999.15
2017-12-08T07:10:36.583Z,999.14
2017-12-08T07:11:17.159Z,999.14
2017-12-08T07:11:57.722Z,999.16
2017-12-08T07:12:38.289Z,999.21
2017-12-08T07:13:18.840Z,999.19
2017-12-08T07:13:59.409Z,999.14
2017-12-08T07:14:40.017Z,999.14
2017-12-08T07:15:20.559Z,999.1
2017-12-08T07:16:01.120Z,999.15
2017-12-08T07:16:41.672Z,999.16
2017-12-08T07:17:22.232Z,999.15
2017-12-08T07:18:02.821Z,999.11
2017-12-08T07:18:43.351Z,999.18
2017-12-08T07:19:23.930Z,999.11
2017-12-08T07:20:04.505Z,999.14
2017-12-08T07:20:45.084Z,999.18
2017-12-08T07:21:25.647Z,999.14
2017-12-08T07:22:06.212Z,999.15
2017-12-08T07:22:46.778Z,999.15
2017-12-08T07:23:27.355Z,999.19
2017-12-08T07:24:07.886Z,999.19
2017-12-08T07:24:48.702Z,999.21
2017-12-08T07:25:30.129Z,999.18
2017-12-08T07:26:10.753Z,999.17
2017-12-08T07:26:51.351Z,999.22
2017-12-08T07:27:31.913Z,999.22
2017-12-08T07:28:12.499Z,999.24
2017-12-08T07:28:53.064Z,999.22
2017-12-08T07:29:33.620Z,999.24
2017-12-08T07:30:14.184Z,999.25
2017-12-08T07:30:54.751Z,999.22
2017-12-08T07:31:35.343Z,999.27
2017-12-08T07:32:15.905Z,999.23
2017-12-08T07:32:56.482Z,999.24
2017-12-08T07:33:37.030Z,999.24
2017-12-08T07:34:17.621Z,999.32
2017-12-08T07:34:58.176Z,999.28
2017-12-08T07:35:38.736Z,999.29
2017-12-08T07:36:19.303Z,999.3
2017-12-08T07:36:59.879Z,999.25
2017-12-08T07:37:40.434Z,999.28
2017-12-08T07:38:21.145Z,999.33
2017-12-08T07:39:01.703Z,999.27
2017-12-08T07:39:42.252Z,999.26
2017-12-08T07:40:22.811Z,999.24
2017-12-08T07:41:03.361Z,999.29
2017-12-08T07:41:43.932Z,999.3
2017-12-08T07:42:24.493Z,999.3
2017-12-08T07:43:05.970Z,999.33
2017-12-08T07:43:45.605Z,999.32
2017-12-08T07:44:26.176Z,999.34
2017-12-08T07:45:06.744Z,999.38
2017-12-08T07:45:47.300Z,999.35
2017-12-08T07:46:27.864Z,999.35
2017-12-08T07:47:08.458Z,999.34
2017-12-08T07:47:49.008Z,999.39
2017-12-08T07:48:29.579Z,999.3
2017-12-08T07:49:10.139Z,999.43
2017-12-08T07:49:50.695Z,999.41
2017-12-08T07:50:31.253Z,999.43
2017-12-08T07:51:11.806Z,999.44
2017-12-08T07:51:52.377Z,999.48
2017-12-08T07:52:32.953Z,999.43
2017-12-08T07:53:13.556Z,999.47
2017-12-08T07:53:54.141Z,999.53
2017-12-08T07:54:34.696Z,999.48
2017-12-08T07:55:15.255Z,999.44
2017-12-08T07:55:55.820Z,999.51
2017-12-08T07:56:36.437Z,999.48
2017-12-08T07:57:17.034Z,999.46
2017-12-08T07:57:57.641Z,999.51
2017-12-08T07:58:38.245Z,999.53
2017-12-08T07:59:18.788Z,999.56
2017-12-08T07:59:59.351Z,999.51
2017-12-08T08:00:39.920Z,999.53
2017-12-08T08:01:20.488Z,999.52
2017-12-08T08:02:01.149Z,999.5
2017-12-08T08:02:41.656Z,999.5
2017-12-08T08:03:22.226Z,999.56
2017-12-08T08:04:02.806Z,999.53
2017-12-08T08:04:43.383Z,999.6
2017-12-08T08:05:23.978Z,999.58
2017-12-08T08:06:04.523Z,999.57
2017-12-08T08:06:45.093Z,999.57
2017-12-08T08:07:25.653Z,999.57
2017-12-08T08:08:06.213Z,999.62
2017-12-08T08:08:46.786Z,999.63
2017-12-08T08:09:27.361Z,999.64
2017-12-08T08:10:07.889Z,999.62
2017-12-08T08:10:48.443Z,999.6
2017-12-08T08:11:29.049Z,999.66
2017-12-08T08:12:09.610Z,999.61
2017-12-08T08:12:50.187Z,999.7
2017-12-08T08:13:30.758Z,999.64
2017-12-08T08:14:11.337Z,999.65
2017-12-08T08:14:51.886Z,999.66
2017-12-08T08:15:32.450Z,999.69
2017-12-08T08:16:13.020Z,999.64
2017-12-08T08:16:53.577Z,999.66
2017-12-08T08:17:34.145Z,999.71
2017-12-08T08:18:14.715Z,999.68
2017-12-08T08:18:55.278Z,999.64
2017-12-08T08:19:35.837Z,999.62
2017-12-08T08:20:16.404Z,999.67
2017-12-08T08:20:56.975Z,999.68
2017-12-08T08:21:37.528Z,999.68
2017-12-08T08:22:18.085Z,999.72
2017-12-08T08:22:58.647Z,999.69
2017-12-08T08:23:39.218Z,999.69
2017-12-08T08:24:19.772Z,999.78
2017-12-08T08:25:00.337Z,999.75
2017-12-08T08:25:40.902Z,999.72
2017-12-08T08:26:21.474Z,999.76
2017-12-08T08:27:02.033Z,999.78
2017-12-08T08:27:42.624Z,999.79